sensor_id;sensor_type;location;lat;lon;timestamp;P1;durP1;ratioP1;P2;durP2;ratioP2
48665;SDS011;34452;50.796;4.994;2023-04-03T00:01:31;8.80;;;4.15;;
48665;SDS011;34452;50.796;4.994;2023-04-03T00:03:57;7.25;;;4.45;;
48665;SDS011;34452;50.796;4.994;2023-04-03T00:06:23;8.13;;;4.72;;
48665;SDS011;34452;50.796;4.994;2023-04-03T00:08:50;10.32;;;4.55;;
48665;SDS011;34452;50.796;4.994;2023-04-03T00:11:16;7.55;;;3.97;;
48665;SDS011;34452;50.796;4.994;2023-04-03T00:16:08;11.68;;;4.50;;
48665;SDS011;34452;50.796;4.994;2023-04-03T00:18:35;9.98;;;4.43;;
48665;SDS011;34452;50.796;4.994;2023-04-03T00:21:01;6.72;;;4.18;;
48665;SDS011;34452;50.796;4.994;2023-04-03T00:25:53;6.15;;;4.22;;
48665;SDS011;34452;50.796;4.994;2023-04-03T00:28:19;8.13;;;4.43;;
48665;SDS011;34452;50.796;4.994;2023-04-03T00:30:45;7.72;;;4.13;;
48665;SDS011;34452;50.796;4.994;2023-04-03T00:33:13;9.32;;;4.85;;
48665;SDS011;34452;50.796;4.994;2023-04-03T00:35:39;10.25;;;4.15;;
48665;SDS011;34452;50.796;4.994;2023-04-03T00:38:05;17.38;;;4.65;;
48665;SDS011;34452;50.796;4.994;2023-04-03T00:40:33;6.80;;;3.95;;
48665;SDS011;34452;50.796;4.994;2023-04-03T00:43:00;8.07;;;4.85;;
48665;SDS011;34452;50.796;4.994;2023-04-03T00:45:28;10.55;;;4.43;;
48665;SDS011;34452;50.796;4.994;2023-04-03T00:47:57;6.80;;;4.20;;
48665;SDS011;34452;50.796;4.994;2023-04-03T00:50:25;6.57;;;4.38;;
48665;SDS011;34452;50.796;4.994;2023-04-03T00:52:53;6.22;;;4.03;;
48665;SDS011;34452;50.796;4.994;2023-04-03T00:55:19;7.13;;;4.00;;
48665;SDS011;34452;50.796;4.994;2023-04-03T00:57:45;8.80;;;4.03;;
48665;SDS011;34452;50.796;4.994;2023-04-03T01:02:39;4.90;;;3.65;;
48665;SDS011;34452;50.796;4.994;2023-04-03T01:07:31;11.23;;;4.30;;
48665;SDS011;34452;50.796;4.994;2023-04-03T01:10:02;7.80;;;4.00;;
48665;SDS011;34452;50.796;4.994;2023-04-03T01:12:32;7.72;;;4.13;;
48665;SDS011;34452;50.796;4.994;2023-04-03T01:15:02;7.43;;;4.20;;
48665;SDS011;34452;50.796;4.994;2023-04-03T01:25:27;10.52;;;4.63;;
48665;SDS011;34452;50.796;4.994;2023-04-03T01:27:53;9.02;;;4.32;;
48665;SDS011;34452;50.796;4.994;2023-04-03T01:30:20;10.07;;;3.85;;
48665;SDS011;34452;50.796;4.994;2023-04-03T01:32:48;8.05;;;3.80;;
48665;SDS011;34452;50.796;4.994;2023-04-03T01:35:14;8.75;;;4.47;;
48665;SDS011;34452;50.796;4.994;2023-04-03T01:37:40;7.97;;;3.95;;
48665;SDS011;34452;50.796;4.994;2023-04-03T01:40:06;7.65;;;4.10;;
48665;SDS011;34452;50.796;4.994;2023-04-03T01:42:33;7.47;;;4.55;;
48665;SDS011;34452;50.796;4.994;2023-04-03T01:44:59;6.30;;;3.95;;
48665;SDS011;34452;50.796;4.994;2023-04-03T01:47:24;7.73;;;4.33;;
48665;SDS011;34452;50.796;4.994;2023-04-03T01:49:50;7.93;;;4.22;;
48665;SDS011;34452;50.796;4.994;2023-04-03T01:52:16;8.30;;;4.15;;
48665;SDS011;34452;50.796;4.994;2023-04-03T01:54:41;10.15;;;3.72;;
48665;SDS011;34452;50.796;4.994;2023-04-03T01:57:07;8.90;;;4.43;;
48665;SDS011;34452;50.796;4.994;2023-04-03T01:59:33;8.80;;;4.28;;
48665;SDS011;34452;50.796;4.994;2023-04-03T02:01:58;12.07;;;5.15;;
48665;SDS011;34452;50.796;4.994;2023-04-03T02:04:24;8.25;;;4.28;;
48665;SDS011;34452;50.796;4.994;2023-04-03T02:06:50;10.32;;;4.45;;
48665;SDS011;34452;50.796;4.994;2023-04-03T02:09:15;9.00;;;4.93;;
48665;SDS011;34452;50.796;4.994;2023-04-03T02:11:41;9.15;;;4.60;;
48665;SDS011;34452;50.796;4.994;2023-04-03T02:14:07;7.70;;;4.70;;
48665;SDS011;34452;50.796;4.994;2023-04-03T02:16:32;10.57;;;4.72;;
48665;SDS011;34452;50.796;4.994;2023-04-03T02:18:58;7.57;;;4.20;;
48665;SDS011;34452;50.796;4.994;2023-04-03T02:21:24;12.32;;;4.78;;
48665;SDS011;34452;50.796;4.994;2023-04-03T02:23:50;10.10;;;5.63;;
48665;SDS011;34452;50.796;4.994;2023-04-03T02:26:16;8.43;;;4.90;;
48665;SDS011;34452;50.796;4.994;2023-04-03T02:28:41;8.57;;;5.28;;
48665;SDS011;34452;50.796;4.994;2023-04-03T02:31:07;10.00;;;4.72;;
48665;SDS011;34452;50.796;4.994;2023-04-03T02:33:34;8.40;;;4.90;;
48665;SDS011;34452;50.796;4.994;2023-04-03T02:36:01;6.05;;;4.50;;
48665;SDS011;34452;50.796;4.994;2023-04-03T02:38:29;7.47;;;4.30;;
48665;SDS011;34452;50.796;4.994;2023-04-03T02:43:38;7.70;;;4.78;;
48665;SDS011;34452;50.796;4.994;2023-04-03T02:46:04;10.38;;;5.13;;
48665;SDS011;34452;50.796;4.994;2023-04-03T02:48:31;6.22;;;4.30;;
48665;SDS011;34452;50.796;4.994;2023-04-03T02:50:57;8.02;;;4.90;;
48665;SDS011;34452;50.796;4.994;2023-04-03T02:53:23;15.75;;;4.95;;
48665;SDS011;34452;50.796;4.994;2023-04-03T02:55:49;11.25;;;4.55;;
48665;SDS011;34452;50.796;4.994;2023-04-03T02:58:15;8.48;;;5.03;;
48665;SDS011;34452;50.796;4.994;2023-04-03T03:00:41;7.38;;;4.82;;
48665;SDS011;34452;50.796;4.994;2023-04-03T03:03:07;11.48;;;4.63;;
48665;SDS011;34452;50.796;4.994;2023-04-03T03:05:32;9.35;;;5.03;;
48665;SDS011;34452;50.796;4.994;2023-04-03T03:07:59;8.38;;;4.85;;
48665;SDS011;34452;50.796;4.994;2023-04-03T03:10:24;13.60;;;5.13;;
48665;SDS011;34452;50.796;4.994;2023-04-03T03:12:50;7.20;;;4.70;;
48665;SDS011;34452;50.796;4.994;2023-04-03T03:15:16;9.57;;;5.03;;
48665;SDS011;34452;50.796;4.994;2023-04-03T03:17:42;11.95;;;5.15;;
48665;SDS011;34452;50.796;4.994;2023-04-03T03:20:08;9.95;;;5.22;;
48665;SDS011;34452;50.796;4.994;2023-04-03T03:22:34;10.65;;;4.85;;
48665;SDS011;34452;50.796;4.994;2023-04-03T03:25:00;8.75;;;5.40;;
48665;SDS011;34452;50.796;4.994;2023-04-03T03:27:27;10.00;;;5.20;;
48665;SDS011;34452;50.796;4.994;2023-04-03T03:29:53;10.43;;;5.50;;
48665;SDS011;34452;50.796;4.994;2023-04-03T03:32:19;11.32;;;5.80;;
48665;SDS011;34452;50.796;4.994;2023-04-03T03:34:45;9.77;;;6.03;;
48665;SDS011;34452;50.796;4.994;2023-04-03T03:37:11;9.68;;;5.47;;
48665;SDS011;34452;50.796;4.994;2023-04-03T03:39:37;7.93;;;5.50;;
48665;SDS011;34452;50.796;4.994;2023-04-03T03:42:02;10.50;;;5.38;;
48665;SDS011;34452;50.796;4.994;2023-04-03T03:44:28;7.10;;;5.22;;
48665;SDS011;34452;50.796;4.994;2023-04-03T03:46:54;7.78;;;5.28;;
48665;SDS011;34452;50.796;4.994;2023-04-03T03:49:21;7.10;;;4.78;;
48665;SDS011;34452;50.796;4.994;2023-04-03T03:51:46;10.10;;;5.55;;
48665;SDS011;34452;50.796;4.994;2023-04-03T03:54:12;15.15;;;5.88;;
48665;SDS011;34452;50.796;4.994;2023-04-03T03:56:38;11.23;;;6.03;;
48665;SDS011;34452;50.796;4.994;2023-04-03T03:59:04;11.82;;;6.25;;
48665;SDS011;34452;50.796;4.994;2023-04-03T04:01:30;9.52;;;6.35;;
48665;SDS011;34452;50.796;4.994;2023-04-03T04:03:56;12.50;;;7.13;;
48665;SDS011;34452;50.796;4.994;2023-04-03T04:06:22;10.68;;;6.32;;
48665;SDS011;34452;50.796;4.994;2023-04-03T04:08:48;10.10;;;6.30;;
48665;SDS011;34452;50.796;4.994;2023-04-03T04:11:14;11.15;;;6.85;;
48665;SDS011;34452;50.796;4.994;2023-04-03T04:13:40;12.20;;;6.07;;
48665;SDS011;34452;50.796;4.994;2023-04-03T04:16:06;8.55;;;6.03;;
48665;SDS011;34452;50.796;4.994;2023-04-03T04:18:32;11.90;;;5.88;;
48665;SDS011;34452;50.796;4.994;2023-04-03T04:20:58;15.68;;;6.10;;
48665;SDS011;34452;50.796;4.994;2023-04-03T04:23:24;9.48;;;6.18;;
48665;SDS011;34452;50.796;4.994;2023-04-03T04:25:50;7.72;;;6.03;;
48665;SDS011;34452;50.796;4.994;2023-04-03T04:28:16;6.93;;;5.32;;
48665;SDS011;34452;50.796;4.994;2023-04-03T04:30:42;10.23;;;6.43;;
48665;SDS011;34452;50.796;4.994;2023-04-03T04:33:07;10.05;;;6.70;;
48665;SDS011;34452;50.796;4.994;2023-04-03T04:35:33;11.70;;;6.00;;
48665;SDS011;34452;50.796;4.994;2023-04-03T04:37:59;14.18;;;6.60;;
48665;SDS011;34452;50.796;4.994;2023-04-03T04:40:25;16.35;;;8.43;;
48665;SDS011;34452;50.796;4.994;2023-04-03T04:42:51;14.73;;;7.70;;
48665;SDS011;34452;50.796;4.994;2023-04-03T04:45:17;9.40;;;5.90;;
48665;SDS011;34452;50.796;4.994;2023-04-03T04:47:43;8.35;;;5.45;;
48665;SDS011;34452;50.796;4.994;2023-04-03T04:50:09;15.85;;;8.10;;
48665;SDS011;34452;50.796;4.994;2023-04-03T04:52:36;12.77;;;6.88;;
48665;SDS011;34452;50.796;4.994;2023-04-03T04:55:02;10.90;;;6.90;;
48665;SDS011;34452;50.796;4.994;2023-04-03T04:57:28;21.02;;;7.57;;
48665;SDS011;34452;50.796;4.994;2023-04-03T04:59:54;8.50;;;6.75;;
48665;SDS011;34452;50.796;4.994;2023-04-03T05:02:19;16.23;;;8.00;;
48665;SDS011;34452;50.796;4.994;2023-04-03T05:04:45;10.48;;;7.30;;
48665;SDS011;34452;50.796;4.994;2023-04-03T05:07:11;14.27;;;7.07;;
48665;SDS011;34452;50.796;4.994;2023-04-03T05:09:37;10.05;;;6.82;;
48665;SDS011;34452;50.796;4.994;2023-04-03T05:12:03;11.77;;;7.30;;
48665;SDS011;34452;50.796;4.994;2023-04-03T05:14:28;14.20;;;8.13;;
48665;SDS011;34452;50.796;4.994;2023-04-03T05:16:55;11.38;;;7.75;;
48665;SDS011;34452;50.796;4.994;2023-04-03T05:19:20;12.73;;;7.90;;
48665;SDS011;34452;50.796;4.994;2023-04-03T05:21:47;12.63;;;7.68;;
48665;SDS011;34452;50.796;4.994;2023-04-03T05:26:39;16.55;;;8.10;;
48665;SDS011;34452;50.796;4.994;2023-04-03T05:29:05;16.70;;;8.68;;
48665;SDS011;34452;50.796;4.994;2023-04-03T05:31:31;12.52;;;8.18;;
48665;SDS011;34452;50.796;4.994;2023-04-03T05:33:57;11.27;;;7.50;;
48665;SDS011;34452;50.796;4.994;2023-04-03T05:36:23;14.45;;;8.52;;
48665;SDS011;34452;50.796;4.994;2023-04-03T05:38:49;15.45;;;7.97;;
48665;SDS011;34452;50.796;4.994;2023-04-03T05:41:15;19.40;;;10.25;;
48665;SDS011;34452;50.796;4.994;2023-04-03T05:43:41;20.45;;;9.68;;
48665;SDS011;34452;50.796;4.994;2023-04-03T05:46:10;11.63;;;7.53;;
48665;SDS011;34452;50.796;4.994;2023-04-03T05:48:37;12.88;;;7.38;;
48665;SDS011;34452;50.796;4.994;2023-04-03T05:51:04;15.77;;;8.25;;
48665;SDS011;34452;50.796;4.994;2023-04-03T05:53:31;14.23;;;7.93;;
48665;SDS011;34452;50.796;4.994;2023-04-03T05:56:00;11.88;;;7.43;;
48665;SDS011;34452;50.796;4.994;2023-04-03T05:58:26;14.02;;;8.10;;
48665;SDS011;34452;50.796;4.994;2023-04-03T06:00:51;10.93;;;7.03;;
48665;SDS011;34452;50.796;4.994;2023-04-03T06:03:17;14.77;;;7.93;;
48665;SDS011;34452;50.796;4.994;2023-04-03T06:05:43;22.92;;;8.32;;
48665;SDS011;34452;50.796;4.994;2023-04-03T06:08:09;15.35;;;7.63;;
48665;SDS011;34452;50.796;4.994;2023-04-03T06:10:34;14.80;;;7.50;;
48665;SDS011;34452;50.796;4.994;2023-04-03T06:15:27;11.90;;;7.28;;
48665;SDS011;34452;50.796;4.994;2023-04-03T06:17:53;10.63;;;7.10;;
48665;SDS011;34452;50.796;4.994;2023-04-03T06:20:19;12.05;;;7.18;;
48665;SDS011;34452;50.796;4.994;2023-04-03T06:22:45;11.68;;;7.38;;
48665;SDS011;34452;50.796;4.994;2023-04-03T06:25:11;12.25;;;8.90;;
48665;SDS011;34452;50.796;4.994;2023-04-03T06:27:37;18.10;;;11.80;;
48665;SDS011;34452;50.796;4.994;2023-04-03T06:32:30;21.30;;;11.57;;
48665;SDS011;34452;50.796;4.994;2023-04-03T06:34:56;18.77;;;10.48;;
48665;SDS011;34452;50.796;4.994;2023-04-03T06:39:50;17.10;;;9.45;;
48665;SDS011;34452;50.796;4.994;2023-04-03T06:42:17;10.50;;;7.25;;
48665;SDS011;34452;50.796;4.994;2023-04-03T06:44:43;14.32;;;8.63;;
48665;SDS011;34452;50.796;4.994;2023-04-03T06:47:11;12.02;;;8.50;;
48665;SDS011;34452;50.796;4.994;2023-04-03T06:49:38;15.48;;;8.20;;
48665;SDS011;34452;50.796;4.994;2023-04-03T06:52:04;13.35;;;8.32;;
48665;SDS011;34452;50.796;4.994;2023-04-03T06:54:30;13.63;;;8.63;;
48665;SDS011;34452;50.796;4.994;2023-04-03T06:56:56;13.98;;;9.13;;
48665;SDS011;34452;50.796;4.994;2023-04-03T06:59:22;22.10;;;8.48;;
48665;SDS011;34452;50.796;4.994;2023-04-03T07:01:48;13.68;;;9.05;;
48665;SDS011;34452;50.796;4.994;2023-04-03T07:04:14;15.85;;;8.63;;
48665;SDS011;34452;50.796;4.994;2023-04-03T07:06:40;11.63;;;8.05;;
48665;SDS011;34452;50.796;4.994;2023-04-03T07:09:07;12.50;;;8.18;;
48665;SDS011;34452;50.796;4.994;2023-04-03T07:11:34;11.63;;;7.53;;
48665;SDS011;34452;50.796;4.994;2023-04-03T07:14:01;12.43;;;8.20;;
48665;SDS011;34452;50.796;4.994;2023-04-03T07:16:27;17.08;;;8.45;;
48665;SDS011;34452;50.796;4.994;2023-04-03T07:18:53;13.93;;;7.88;;
48665;SDS011;34452;50.796;4.994;2023-04-03T07:21:18;14.57;;;8.43;;
48665;SDS011;34452;50.796;4.994;2023-04-03T07:23:44;14.77;;;7.93;;
48665;SDS011;34452;50.796;4.994;2023-04-03T07:26:10;19.63;;;8.57;;
48665;SDS011;34452;50.796;4.994;2023-04-03T07:28:35;16.67;;;8.52;;
48665;SDS011;34452;50.796;4.994;2023-04-03T07:31:02;17.85;;;8.07;;
48665;SDS011;34452;50.796;4.994;2023-04-03T07:33:31;14.65;;;7.32;;
48665;SDS011;34452;50.796;4.994;2023-04-03T07:38:23;13.88;;;7.63;;
48665;SDS011;34452;50.796;4.994;2023-04-03T07:40:49;12.88;;;7.82;;
48665;SDS011;34452;50.796;4.994;2023-04-03T07:43:16;9.55;;;7.05;;
48665;SDS011;34452;50.796;4.994;2023-04-03T07:45:43;17.80;;;7.55;;
48665;SDS011;34452;50.796;4.994;2023-04-03T07:48:10;11.70;;;7.28;;
48665;SDS011;34452;50.796;4.994;2023-04-03T07:50:36;16.50;;;7.47;;
48665;SDS011;34452;50.796;4.994;2023-04-03T07:53:02;9.77;;;7.28;;
48665;SDS011;34452;50.796;4.994;2023-04-03T07:57:54;12.90;;;7.60;;
48665;SDS011;34452;50.796;4.994;2023-04-03T08:00:20;13.43;;;7.35;;
48665;SDS011;34452;50.796;4.994;2023-04-03T08:02:46;12.45;;;5.88;;
48665;SDS011;34452;50.796;4.994;2023-04-03T08:05:16;8.90;;;5.80;;
48665;SDS011;34452;50.796;4.994;2023-04-03T08:07:43;12.23;;;5.72;;
48665;SDS011;34452;50.796;4.994;2023-04-03T08:10:08;15.05;;;5.68;;
48665;SDS011;34452;50.796;4.994;2023-04-03T08:12:34;11.73;;;5.72;;
48665;SDS011;34452;50.796;4.994;2023-04-03T08:15:01;7.82;;;5.15;;
48665;SDS011;34452;50.796;4.994;2023-04-03T08:17:28;12.60;;;5.53;;
48665;SDS011;34452;50.796;4.994;2023-04-03T08:19:54;13.38;;;5.70;;
48665;SDS011;34452;50.796;4.994;2023-04-03T08:22:19;7.72;;;4.82;;
48665;SDS011;34452;50.796;4.994;2023-04-03T08:24:45;8.02;;;4.20;;
48665;SDS011;34452;50.796;4.994;2023-04-03T08:27:11;8.43;;;4.20;;
48665;SDS011;34452;50.796;4.994;2023-04-03T08:29:37;8.77;;;4.60;;
48665;SDS011;34452;50.796;4.994;2023-04-03T08:32:03;15.60;;;4.73;;
48665;SDS011;34452;50.796;4.994;2023-04-03T08:34:29;9.05;;;4.07;;
48665;SDS011;34452;50.796;4.994;2023-04-03T08:36:55;6.95;;;3.58;;
48665;SDS011;34452;50.796;4.994;2023-04-03T08:39:21;10.07;;;4.40;;
48665;SDS011;34452;50.796;4.994;2023-04-03T08:41:47;7.13;;;3.78;;
48665;SDS011;34452;50.796;4.994;2023-04-03T08:46:45;12.88;;;3.92;;
48665;SDS011;34452;50.796;4.994;2023-04-03T08:49:33;6.18;;;3.08;;
48665;SDS011;34452;50.796;4.994;2023-04-03T08:52:04;12.25;;;3.58;;
48665;SDS011;34452;50.796;4.994;2023-04-03T08:54:35;7.95;;;3.38;;
48665;SDS011;34452;50.796;4.994;2023-04-03T08:57:20;8.88;;;3.40;;
48665;SDS011;34452;50.796;4.994;2023-04-03T09:00:06;4.88;;;3.38;;
48665;SDS011;34452;50.796;4.994;2023-04-03T09:02:41;9.05;;;3.60;;
48665;SDS011;34452;50.796;4.994;2023-04-03T09:05:14;9.68;;;4.03;;
48665;SDS011;34452;50.796;4.994;2023-04-03T09:07:45;5.90;;;3.15;;
48665;SDS011;34452;50.796;4.994;2023-04-03T09:10:18;6.32;;;3.05;;
48665;SDS011;34452;50.796;4.994;2023-04-03T09:12:57;8.27;;;3.90;;
48665;SDS011;34452;50.796;4.994;2023-04-03T09:15:43;9.20;;;3.05;;
48665;SDS011;34452;50.796;4.994;2023-04-03T09:28:51;9.63;;;2.90;;
48665;SDS011;34452;50.796;4.994;2023-04-03T09:34:06;6.82;;;2.75;;
48665;SDS011;34452;50.796;4.994;2023-04-03T09:36:46;8.07;;;2.80;;
48665;SDS011;34452;50.796;4.994;2023-04-03T09:39:15;7.18;;;2.70;;
48665;SDS011;34452;50.796;4.994;2023-04-03T09:41:54;7.13;;;2.10;;
48665;SDS011;34452;50.796;4.994;2023-04-03T09:44:38;8.07;;;2.20;;
48665;SDS011;34452;50.796;4.994;2023-04-03T09:49:51;5.18;;;2.17;;
48665;SDS011;34452;50.796;4.994;2023-04-03T09:52:45;6.50;;;2.72;;
48665;SDS011;34452;50.796;4.994;2023-04-03T09:55:13;5.30;;;2.20;;
48665;SDS011;34452;50.796;4.994;2023-04-03T09:57:43;6.65;;;2.05;;
48665;SDS011;34452;50.796;4.994;2023-04-03T10:02:56;5.35;;;2.17;;
48665;SDS011;34452;50.796;4.994;2023-04-03T10:08:07;7.07;;;2.55;;
48665;SDS011;34452;50.796;4.994;2023-04-03T10:11:05;4.85;;;1.83;;
48665;SDS011;34452;50.796;4.994;2023-04-03T10:13:34;7.97;;;1.60;;
48665;SDS011;34452;50.796;4.994;2023-04-03T10:16:03;8.25;;;2.40;;
48665;SDS011;34452;50.796;4.994;2023-04-03T10:24:25;7.72;;;1.95;;
48665;SDS011;34452;50.796;4.994;2023-04-03T10:27:04;5.38;;;1.65;;
48665;SDS011;34452;50.796;4.994;2023-04-03T10:32:43;5.88;;;1.55;;
48665;SDS011;34452;50.796;4.994;2023-04-03T10:35:35;6.20;;;1.70;;
48665;SDS011;34452;50.796;4.994;2023-04-03T10:40:56;12.35;;;2.92;;
48665;SDS011;34452;50.796;4.994;2023-04-03T10:46:15;7.45;;;1.75;;
48665;SDS011;34452;50.796;4.994;2023-04-03T10:54:55;6.40;;;1.88;;
48665;SDS011;34452;50.796;4.994;2023-04-03T10:57:22;5.35;;;1.70;;
48665;SDS011;34452;50.796;4.994;2023-04-03T10:59:50;5.20;;;1.65;;
48665;SDS011;34452;50.796;4.994;2023-04-03T11:11:02;8.80;;;1.92;;
48665;SDS011;34452;50.796;4.994;2023-04-03T11:13:33;5.07;;;1.65;;
48665;SDS011;34452;50.796;4.994;2023-04-03T11:16:02;5.80;;;1.75;;
48665;SDS011;34452;50.796;4.994;2023-04-03T11:18:34;9.68;;;1.83;;
48665;SDS011;34452;50.796;4.994;2023-04-03T11:23:56;6.28;;;1.48;;
48665;SDS011;34452;50.796;4.994;2023-04-03T11:26:25;2.15;;;1.20;;
48665;SDS011;34452;50.796;4.994;2023-04-03T11:29:00;2.50;;;1.10;;
48665;SDS011;34452;50.796;4.994;2023-04-03T11:37:16;3.60;;;0.90;;
48665;SDS011;34452;50.796;4.994;2023-04-03T11:39:48;1.92;;;0.95;;
48665;SDS011;34452;50.796;4.994;2023-04-03T11:47:52;4.30;;;1.20;;
48665;SDS011;34452;50.796;4.994;2023-04-03T11:55:42;1.97;;;0.90;;
48665;SDS011;34452;50.796;4.994;2023-04-03T11:58:27;1.90;;;1.00;;
48665;SDS011;34452;50.796;4.994;2023-04-03T12:00:55;3.00;;;1.23;;
48665;SDS011;34452;50.796;4.994;2023-04-03T12:14:05;1.45;;;0.73;;
48665;SDS011;34452;50.796;4.994;2023-04-03T12:34:56;8.82;;;1.48;;
48665;SDS011;34452;50.796;4.994;2023-04-03T12:40:31;2.15;;;1.27;;
48665;SDS011;34452;50.796;4.994;2023-04-03T12:48:37;2.03;;;1.10;;
48665;SDS011;34452;50.796;4.994;2023-04-03T12:51:03;3.20;;;1.23;;
48665;SDS011;34452;50.796;4.994;2023-04-03T12:53:32;4.47;;;1.50;;
48665;SDS011;34452;50.796;4.994;2023-04-03T12:58:48;4.75;;;1.30;;
48665;SDS011;34452;50.796;4.994;2023-04-03T13:01:16;10.63;;;1.52;;
48665;SDS011;34452;50.796;4.994;2023-04-03T13:03:47;5.00;;;1.40;;
48665;SDS011;34452;50.796;4.994;2023-04-03T13:09:00;2.92;;;1.17;;
48665;SDS011;34452;50.796;4.994;2023-04-03T13:11:27;4.53;;;1.42;;
48665;SDS011;34452;50.796;4.994;2023-04-03T13:14:00;2.92;;;1.33;;
48665;SDS011;34452;50.796;4.994;2023-04-03T13:16:30;4.30;;;1.48;;
48665;SDS011;34452;50.796;4.994;2023-04-03T13:18:56;4.25;;;1.50;;
48665;SDS011;34452;50.796;4.994;2023-04-03T13:21:35;2.72;;;1.35;;
48665;SDS011;34452;50.796;4.994;2023-04-03T13:24:02;3.85;;;1.33;;
48665;SDS011;34452;50.796;4.994;2023-04-03T13:26:29;5.80;;;1.23;;
48665;SDS011;34452;50.796;4.994;2023-04-03T13:29:00;4.53;;;1.40;;
48665;SDS011;34452;50.796;4.994;2023-04-03T13:31:33;2.55;;;1.17;;
48665;SDS011;34452;50.796;4.994;2023-04-03T13:34:20;2.85;;;1.50;;
48665;SDS011;34452;50.796;4.994;2023-04-03T13:41:47;4.05;;;1.30;;
48665;SDS011;34452;50.796;4.994;2023-04-03T13:46:51;5.03;;;1.65;;
48665;SDS011;34452;50.796;4.994;2023-04-03T13:51:58;3.88;;;1.52;;
48665;SDS011;34452;50.796;4.994;2023-04-03T13:54:28;3.40;;;1.50;;
48665;SDS011;34452;50.796;4.994;2023-04-03T13:57:14;9.35;;;1.52;;
48665;SDS011;34452;50.796;4.994;2023-04-03T13:59:41;4.97;;;1.50;;
48665;SDS011;34452;50.796;4.994;2023-04-03T14:07:18;6.18;;;1.60;;
48665;SDS011;34452;50.796;4.994;2023-04-03T14:09:45;6.57;;;1.73;;
48665;SDS011;34452;50.796;4.994;2023-04-03T14:12:14;5.72;;;1.83;;
48665;SDS011;34452;50.796;4.994;2023-04-03T14:14:43;3.22;;;1.13;;
48665;SDS011;34452;50.796;4.994;2023-04-03T14:17:13;10.13;;;1.83;;
48665;SDS011;34452;50.796;4.994;2023-04-03T14:19:42;10.27;;;1.67;;
48665;SDS011;34452;50.796;4.994;2023-04-03T14:24:55;5.13;;;1.60;;
48665;SDS011;34452;50.796;4.994;2023-04-03T14:29:48;3.35;;;1.75;;
48665;SDS011;34452;50.796;4.994;2023-04-03T14:32:16;6.15;;;2.05;;
48665;SDS011;34452;50.796;4.994;2023-04-03T14:34:43;6.75;;;1.65;;
48665;SDS011;34452;50.796;4.994;2023-04-03T14:37:11;4.38;;;1.73;;
48665;SDS011;34452;50.796;4.994;2023-04-03T14:39:38;3.08;;;1.50;;
48665;SDS011;34452;50.796;4.994;2023-04-03T14:44:30;4.70;;;1.48;;
48665;SDS011;34452;50.796;4.994;2023-04-03T14:46:56;3.92;;;1.52;;
48665;SDS011;34452;50.796;4.994;2023-04-03T14:49:24;4.85;;;1.80;;
48665;SDS011;34452;50.796;4.994;2023-04-03T14:51:52;6.47;;;1.30;;
48665;SDS011;34452;50.796;4.994;2023-04-03T14:54:19;1.85;;;1.17;;
48665;SDS011;34452;50.796;4.994;2023-04-03T14:56:50;4.22;;;1.15;;
48665;SDS011;34452;50.796;4.994;2023-04-03T15:01:45;2.65;;;1.20;;
48665;SDS011;34452;50.796;4.994;2023-04-03T15:04:12;5.78;;;1.45;;
48665;SDS011;34452;50.796;4.994;2023-04-03T15:06:40;4.00;;;1.40;;
48665;SDS011;34452;50.796;4.994;2023-04-03T15:09:11;4.53;;;1.73;;
48665;SDS011;34452;50.796;4.994;2023-04-03T15:11:40;5.28;;;1.55;;
48665;SDS011;34452;50.796;4.994;2023-04-03T15:14:08;6.95;;;1.60;;
48665;SDS011;34452;50.796;4.994;2023-04-03T15:16:34;5.97;;;1.70;;
48665;SDS011;34452;50.796;4.994;2023-04-03T15:19:00;7.18;;;1.95;;
48665;SDS011;34452;50.796;4.994;2023-04-03T15:21:26;5.95;;;1.40;;
48665;SDS011;34452;50.796;4.994;2023-04-03T15:23:52;2.95;;;1.40;;
48665;SDS011;34452;50.796;4.994;2023-04-03T15:26:17;5.47;;;1.70;;
48665;SDS011;34452;50.796;4.994;2023-04-03T15:28:43;4.25;;;1.52;;
48665;SDS011;34452;50.796;4.994;2023-04-03T15:31:10;4.63;;;1.48;;
48665;SDS011;34452;50.796;4.994;2023-04-03T15:33:36;2.67;;;1.20;;
48665;SDS011;34452;50.796;4.994;2023-04-03T15:36:02;2.10;;;1.20;;
48665;SDS011;34452;50.796;4.994;2023-04-03T15:38:28;7.28;;;2.05;;
48665;SDS011;34452;50.796;4.994;2023-04-03T15:40:54;2.75;;;1.50;;
48665;SDS011;34452;50.796;4.994;2023-04-03T15:43:20;5.28;;;1.52;;
48665;SDS011;34452;50.796;4.994;2023-04-03T15:45:46;11.00;;;1.77;;
48665;SDS011;34452;50.796;4.994;2023-04-03T15:48:12;10.48;;;1.63;;
48665;SDS011;34452;50.796;4.994;2023-04-03T15:50:39;6.05;;;1.52;;
48665;SDS011;34452;50.796;4.994;2023-04-03T15:55:31;6.85;;;2.10;;
48665;SDS011;34452;50.796;4.994;2023-04-03T15:57:59;3.90;;;1.55;;
48665;SDS011;34452;50.796;4.994;2023-04-03T16:00:25;2.10;;;1.13;;
48665;SDS011;34452;50.796;4.994;2023-04-03T16:02:52;4.85;;;1.73;;
48665;SDS011;34452;50.796;4.994;2023-04-03T16:05:22;4.40;;;1.40;;
48665;SDS011;34452;50.796;4.994;2023-04-03T16:07:48;4.45;;;1.42;;
48665;SDS011;34452;50.796;4.994;2023-04-03T16:10:15;4.05;;;1.60;;
48665;SDS011;34452;50.796;4.994;2023-04-03T16:12:42;3.83;;;1.38;;
48665;SDS011;34452;50.796;4.994;2023-04-03T16:15:08;2.08;;;1.25;;
48665;SDS011;34452;50.796;4.994;2023-04-03T16:17:34;7.13;;;1.55;;
48665;SDS011;34452;50.796;4.994;2023-04-03T16:20:01;3.30;;;1.50;;
48665;SDS011;34452;50.796;4.994;2023-04-03T16:22:29;3.10;;;1.48;;
48665;SDS011;34452;50.796;4.994;2023-04-03T16:24:55;5.55;;;1.33;;
48665;SDS011;34452;50.796;4.994;2023-04-03T16:27:21;4.30;;;1.58;;
48665;SDS011;34452;50.796;4.994;2023-04-03T16:29:52;4.97;;;1.60;;
48665;SDS011;34452;50.796;4.994;2023-04-03T16:32:19;3.30;;;1.65;;
48665;SDS011;34452;50.796;4.994;2023-04-03T16:34:45;3.00;;;1.20;;
48665;SDS011;34452;50.796;4.994;2023-04-03T16:37:11;5.57;;;1.27;;
48665;SDS011;34452;50.796;4.994;2023-04-03T16:39:37;3.95;;;1.50;;
48665;SDS011;34452;50.796;4.994;2023-04-03T16:42:02;4.18;;;1.15;;
48665;SDS011;34452;50.796;4.994;2023-04-03T16:44:28;5.00;;;1.30;;
48665;SDS011;34452;50.796;4.994;2023-04-03T16:46:54;1.73;;;1.17;;
48665;SDS011;34452;50.796;4.994;2023-04-03T16:49:20;8.40;;;1.75;;
48665;SDS011;34452;50.796;4.994;2023-04-03T16:51:45;3.95;;;1.40;;
48665;SDS011;34452;50.796;4.994;2023-04-03T16:54:13;3.88;;;1.40;;
48665;SDS011;34452;50.796;4.994;2023-04-03T16:56:39;2.30;;;1.40;;
48665;SDS011;34452;50.796;4.994;2023-04-03T16:59:05;5.70;;;1.42;;
48665;SDS011;34452;50.796;4.994;2023-04-03T17:01:31;3.65;;;1.23;;
48665;SDS011;34452;50.796;4.994;2023-04-03T17:03:56;8.38;;;1.38;;
48665;SDS011;34452;50.796;4.994;2023-04-03T17:06:22;4.93;;;1.55;;
48665;SDS011;34452;50.796;4.994;2023-04-03T17:08:49;4.15;;;1.30;;
48665;SDS011;34452;50.796;4.994;2023-04-03T17:11:16;3.28;;;1.48;;
48665;SDS011;34452;50.796;4.994;2023-04-03T17:13:42;3.47;;;1.30;;
48665;SDS011;34452;50.796;4.994;2023-04-03T17:16:08;6.90;;;1.60;;
48665;SDS011;34452;50.796;4.994;2023-04-03T17:18:37;4.45;;;1.52;;
48665;SDS011;34452;50.796;4.994;2023-04-03T17:21:03;5.70;;;1.40;;
48665;SDS011;34452;50.796;4.994;2023-04-03T17:23:29;5.65;;;1.60;;
48665;SDS011;34452;50.796;4.994;2023-04-03T17:25:55;3.13;;;1.50;;
48665;SDS011;34452;50.796;4.994;2023-04-03T17:28:22;5.07;;;1.83;;
48665;SDS011;34452;50.796;4.994;2023-04-03T17:30:53;13.30;;;1.65;;
48665;SDS011;34452;50.796;4.994;2023-04-03T17:33:19;5.63;;;1.60;;
48665;SDS011;34452;50.796;4.994;2023-04-03T17:35:45;3.35;;;1.38;;
48665;SDS011;34452;50.796;4.994;2023-04-03T17:38:11;2.58;;;1.27;;
48665;SDS011;34452;50.796;4.994;2023-04-03T17:40:37;4.43;;;1.10;;
48665;SDS011;34452;50.796;4.994;2023-04-03T17:43:03;4.00;;;1.48;;
48665;SDS011;34452;50.796;4.994;2023-04-03T17:45:28;6.60;;;1.73;;